createdAt,value
2019-02-08T00:01:54.253Z,22.17
2019-02-08T00:04:24.415Z,24.70
2019-02-08T00:06:54.800Z,24.43
2019-02-08T00:09:24.957Z,21.30
2019-02-08T00:11:55.028Z,22.60
2019-02-08T00:14:25.116Z,24.97
2019-02-08T00:16:55.366Z,17.57
2019-02-08T00:19:25.601Z,21.87
2019-02-08T00:21:55.772Z,21.23
2019-02-08T00:24:25.926Z,23.07
2019-02-08T00:26:56.289Z,22.07
2019-02-08T00:29:27.607Z,22.00
2019-02-08T00:31:57.812Z,20.43
2019-02-08T00:34:27.987Z,22.37
2019-02-08T00:36:58.167Z,23.77
2019-02-08T00:39:28.445Z,23.93
2019-02-08T00:41:58.710Z,20.97
2019-02-08T00:44:28.920Z,18.63
2019-02-08T00:46:59.074Z,20.57
2019-02-08T00:49:29.224Z,22.30
2019-02-08T00:51:59.425Z,23.97
2019-02-08T00:54:29.943Z,20.60
2019-02-08T00:57:00.188Z,18.43
2019-02-08T00:59:30.380Z,21.93
2019-02-08T01:02:00.602Z,20.20
2019-02-08T01:04:30.782Z,21.90
2019-02-08T01:07:01.009Z,21.60
2019-02-08T01:09:31.534Z,24.43
2019-02-08T01:12:01.642Z,20.53
2019-02-08T01:14:31.773Z,23.97
2019-02-08T01:17:02.267Z,20.10
2019-02-08T01:19:32.420Z,17.63
2019-02-08T01:22:02.529Z,21.07
2019-02-08T01:24:33.170Z,18.73
2019-02-08T01:27:03.257Z,21.77
2019-02-08T01:29:33.339Z,21.17
2019-02-08T01:32:03.449Z,24.57
2019-02-08T01:34:33.629Z,15.67
2019-02-08T01:37:03.780Z,23.17
2019-02-08T01:39:33.898Z,19.37
2019-02-08T01:42:04.164Z,16.47
2019-02-08T01:44:34.296Z,19.50
2019-02-08T01:47:04.438Z,18.07
2019-02-08T01:49:34.536Z,19.60
2019-02-08T01:52:04.695Z,21.37
2019-02-08T01:54:34.791Z,22.77
2019-02-08T01:57:04.855Z,19.73
2019-02-08T01:59:35.027Z,19.27
2019-02-08T02:02:05.155Z,21.97
2019-02-08T02:04:35.211Z,19.37
2019-02-08T02:07:05.577Z,19.00
2019-02-08T02:09:35.666Z,18.23
2019-02-08T02:12:05.817Z,21.07
2019-02-08T02:14:36.003Z,20.07
2019-02-08T02:17:06.164Z,18.63
2019-02-08T02:19:36.212Z,16.63
2019-02-08T02:22:06.528Z,21.07
2019-02-08T02:24:36.658Z,18.23
2019-02-08T02:27:07.829Z,17.47
2019-02-08T02:29:37.936Z,19.60
2019-02-08T02:32:08.037Z,16.30
2019-02-08T02:34:38.152Z,18.67
2019-02-08T02:37:08.201Z,19.73
2019-02-08T02:39:38.284Z,19.27
2019-02-08T02:42:08.369Z,21.60
2019-02-08T02:44:38.478Z,19.90
2019-02-08T02:47:08.896Z,18.93
2019-02-08T02:49:39.211Z,20.40
2019-02-08T02:52:09.574Z,18.00
2019-02-08T02:54:39.859Z,15.47
2019-02-08T02:57:10.183Z,21.43
2019-02-08T02:59:40.343Z,20.27
2019-02-08T03:02:10.507Z,18.07
2019-02-08T03:04:40.582Z,16.90
2019-02-08T03:07:11.793Z,20.67
2019-02-08T03:09:41.860Z,19.63
2019-02-08T03:12:12.329Z,17.50
2019-02-08T03:14:42.654Z,14.50
2019-02-08T03:17:13.308Z,18.30
2019-02-08T03:19:43.816Z,16.33
2019-02-08T03:22:14.153Z,15.60
2019-02-08T03:24:44.283Z,12.40
2019-02-08T03:27:14.448Z,19.37
2019-02-08T03:29:44.580Z,11.87
2019-02-08T03:32:14.769Z,15.33
2019-02-08T03:34:44.839Z,11.00
2019-02-08T03:37:14.969Z,10.73
2019-02-08T03:39:45.139Z,12.37
2019-02-08T03:42:15.300Z,12.27
2019-02-08T03:44:45.527Z,11.73
2019-02-08T03:47:15.691Z,10.27
2019-02-08T03:49:45.842Z,12.33
2019-02-08T03:52:15.910Z,11.00
2019-02-08T03:54:46.040Z,12.60
2019-02-08T03:57:16.205Z,11.83
2019-02-08T03:59:46.394Z,10.97
2019-02-08T04:02:16.529Z,11.47
2019-02-08T04:04:46.642Z,13.27
2019-02-08T04:07:16.820Z,14.20
2019-02-08T04:09:46.933Z,11.63
2019-02-08T04:12:17.007Z,14.50
2019-02-08T04:14:47.155Z,14.53
2019-02-08T04:17:17.321Z,12.10
2019-02-08T04:19:47.571Z,11.33
2019-02-08T04:22:17.719Z,11.47
2019-02-08T04:24:47.909Z,11.87
2019-02-08T04:27:18.028Z,14.07
2019-02-08T04:29:49.166Z,11.00
2019-02-08T04:32:19.261Z,12.40
2019-02-08T04:34:49.425Z,11.27
2019-02-08T04:37:19.617Z,13.97
2019-02-08T04:39:49.777Z,13.87
2019-02-08T04:42:19.936Z,13.10
2019-02-08T04:44:51.138Z,11.40
2019-02-08T04:47:21.309Z,14.00
2019-02-08T04:49:51.381Z,11.70
2019-02-08T04:52:21.517Z,17.03
2019-02-08T04:54:51.703Z,14.17
2019-02-08T04:57:21.781Z,18.57
2019-02-08T04:59:51.933Z,13.67
2019-02-08T05:02:21.991Z,13.90
2019-02-08T05:04:52.100Z,12.57
2019-02-08T05:07:22.348Z,15.63
2019-02-08T05:09:52.464Z,11.87
2019-02-08T05:12:22.968Z,16.00
2019-02-08T05:14:53.042Z,12.90
2019-02-08T05:17:23.114Z,15.43
2019-02-08T05:19:53.348Z,14.33
2019-02-08T05:22:23.452Z,12.60
2019-02-08T05:24:53.585Z,11.47
2019-02-08T05:27:23.729Z,12.57
2019-02-08T05:29:53.924Z,10.53
2019-02-08T05:32:24.006Z,10.50
2019-02-08T05:34:54.156Z,11.37
2019-02-08T05:37:24.277Z,12.70
2019-02-08T05:39:54.368Z,15.80
2019-02-08T05:42:24.576Z,11.47
2019-02-08T05:44:54.620Z,12.63
2019-02-08T05:47:24.747Z,10.73
2019-02-08T05:49:54.968Z,11.90
2019-02-08T05:52:25.246Z,10.13
2019-02-08T05:54:55.310Z,13.20
2019-02-08T05:57:25.446Z,11.03
2019-02-08T05:59:55.601Z,15.03
2019-02-08T06:02:25.668Z,13.33
2019-02-08T06:04:55.744Z,16.67
2019-02-08T06:07:25.930Z,11.33
2019-02-08T06:09:56.122Z,10.13
2019-02-08T06:12:26.179Z,7.77
2019-02-08T06:14:56.289Z,12.37
2019-02-08T06:17:26.440Z,11.17
2019-02-08T06:19:56.610Z,16.97
2019-02-08T06:22:26.666Z,12.83
2019-02-08T06:25:03.135Z,12.00
2019-02-08T06:27:28.629Z,11.60
2019-02-08T06:29:58.700Z,9.23
2019-02-08T06:32:28.930Z,7.93
2019-02-08T06:34:59.029Z,9.40
2019-02-08T06:37:29.205Z,14.93
2019-02-08T06:39:59.320Z,12.97
2019-02-08T06:42:29.387Z,14.53
2019-02-08T06:44:59.588Z,12.33
2019-02-08T06:47:29.682Z,10.07
2019-02-08T06:49:59.840Z,12.63
2019-02-08T06:52:30.018Z,16.47
2019-02-08T06:55:00.233Z,10.47
2019-02-08T06:57:45.380Z,10.33
2019-02-08T07:00:28.811Z,12.83
2019-02-08T07:03:16.805Z,9.93
2019-02-08T07:06:14.986Z,12.07
2019-02-08T07:09:03.309Z,14.23
2019-02-08T07:11:41.099Z,11.67
2019-02-08T07:14:25.888Z,10.80
2019-02-08T07:17:14.452Z,10.80
2019-02-08T07:20:04.993Z,13.73
2019-02-08T07:22:57.325Z,12.13
2019-02-08T07:25:41.663Z,10.73
2019-02-08T07:28:27.382Z,8.87
2019-02-08T07:31:12.325Z,11.20
2019-02-08T07:34:05.203Z,11.27
2019-02-08T07:37:03.649Z,12.30
2019-02-08T07:39:53.385Z,24.47
2019-02-08T07:42:45.943Z,16.10
2019-02-08T07:45:26.668Z,19.17
2019-02-08T07:48:22.111Z,12.73
2019-02-08T07:51:16.673Z,13.73
2019-02-08T07:53:57.083Z,9.47
2019-02-08T07:56:45.213Z,12.57
2019-02-08T07:59:27.516Z,14.03
2019-02-08T08:02:28.173Z,10.03
2019-02-08T08:05:17.358Z,11.80
2019-02-08T08:08:01.802Z,10.00
2019-02-08T08:10:54.017Z,10.97
2019-02-08T08:13:47.162Z,14.90
2019-02-08T08:16:26.139Z,16.10
2019-02-08T08:19:16.022Z,13.30
2019-02-08T08:22:11.314Z,11.77
2019-02-08T08:24:49.667Z,11.73
2019-02-08T08:27:44.792Z,11.13
2019-02-08T08:30:32.590Z,15.07
2019-02-08T08:33:18.178Z,13.47
2019-02-08T08:36:25.323Z,12.43
2019-02-08T08:39:24.593Z,12.53
2019-02-08T08:42:18.756Z,9.87
2019-02-08T08:45:16.981Z,13.90
2019-02-08T08:48:30.726Z,14.70
2019-02-08T08:52:00.156Z,11.77
2019-02-08T08:55:20.402Z,11.70
2019-02-08T08:58:22.459Z,9.33
2019-02-08T09:01:17.325Z,11.83
2019-02-08T09:04:23.382Z,11.13
2019-02-08T09:07:22.216Z,14.10
2019-02-08T09:10:10.600Z,10.07
2019-02-08T09:13:30.587Z,9.83
2019-02-08T09:16:31.433Z,10.07
2019-02-08T09:20:03.886Z,9.47
2019-02-08T09:23:30.245Z,9.87
2019-02-08T09:26:31.272Z,11.47
2019-02-08T09:29:27.462Z,11.27
2019-02-08T09:32:34.670Z,12.43
2019-02-08T09:36:01.314Z,13.20
2019-02-08T09:39:24.672Z,14.00
2019-02-08T09:42:33.038Z,11.10
2019-02-08T09:45:28.509Z,10.27
2019-02-08T09:48:46.950Z,12.97
2019-02-08T09:51:28.916Z,10.60
2019-02-08T09:54:42.804Z,15.37
2019-02-08T09:58:17.526Z,12.67
2019-02-08T10:01:39.886Z,13.63
2019-02-08T10:04:48.304Z,10.80
2019-02-08T10:08:00.726Z,9.53
2019-02-08T10:10:56.108Z,16.90
2019-02-08T10:14:10.170Z,11.87
2019-02-08T10:17:20.336Z,11.37
2019-02-08T10:20:33.110Z,11.83
2019-02-08T10:23:39.574Z,13.80
2019-02-08T10:26:39.129Z,10.77
2019-02-08T10:29:48.978Z,16.57
2019-02-08T10:33:10.372Z,13.30
2019-02-08T10:36:26.811Z,9.47
2019-02-08T10:39:25.876Z,11.83
2019-02-08T10:42:20.853Z,10.47
2019-02-08T10:45:43.404Z,12.80
2019-02-08T10:48:57.980Z,8.03
2019-02-08T10:52:18.037Z,10.50
2019-02-08T10:55:24.861Z,11.27
2019-02-08T10:59:03.543Z,10.00
2019-02-08T11:02:21.251Z,10.70
2019-02-08T11:05:46.298Z,11.40
2019-02-08T11:08:52.201Z,19.67
2019-02-08T11:11:48.133Z,9.87
2019-02-08T11:14:59.221Z,11.27
2019-02-08T11:18:05.382Z,12.23
2019-02-08T11:20:35.534Z,11.93
2019-02-08T11:23:05.768Z,10.70
2019-02-08T11:25:35.930Z,14.43
2019-02-08T11:28:06.044Z,12.13
2019-02-08T11:30:55.232Z,10.47
2019-02-08T11:33:25.477Z,15.37
2019-02-08T11:35:55.605Z,12.10
2019-02-08T11:38:25.680Z,8.60
2019-02-08T11:40:55.782Z,11.00
2019-02-08T11:43:25.939Z,12.77
2019-02-08T11:46:15.191Z,14.47
2019-02-08T11:48:45.289Z,12.27
2019-02-08T11:51:15.379Z,13.57
2019-02-08T11:53:45.473Z,9.50
2019-02-08T11:56:15.628Z,13.50
2019-02-08T11:58:45.787Z,10.27
2019-02-08T12:01:15.986Z,12.23
2019-02-08T12:04:06.704Z,10.80
2019-02-08T12:06:37.860Z,11.87
2019-02-08T12:09:26.986Z,9.43
2019-02-08T12:11:57.107Z,8.37
2019-02-08T12:14:27.199Z,11.37
2019-02-08T12:16:57.341Z,10.43
2019-02-08T12:19:27.467Z,8.87
2019-02-08T12:21:57.755Z,10.43
2019-02-08T12:24:28.013Z,10.10
2019-02-08T12:26:58.210Z,11.00
2019-02-08T12:29:28.400Z,7.70
2019-02-08T12:31:58.607Z,10.00
2019-02-08T12:34:28.800Z,11.10
2019-02-08T12:36:59.011Z,12.03
2019-02-08T12:39:29.115Z,11.23
2019-02-08T12:41:59.182Z,10.93
2019-02-08T12:44:29.302Z,10.53
2019-02-08T12:46:59.479Z,10.00
2019-02-08T12:49:29.577Z,11.00
2019-02-08T12:51:59.634Z,12.67
2019-02-08T12:54:29.736Z,11.87
2019-02-08T12:56:59.944Z,14.20
2019-02-08T12:59:30.369Z,9.83
2019-02-08T13:02:00.550Z,10.47
2019-02-08T13:04:30.773Z,7.67
2019-02-08T13:07:12.229Z,7.57
2019-02-08T13:09:54.254Z,12.60
2019-02-08T13:12:24.399Z,11.23
2019-02-08T13:14:54.649Z,8.63
2019-02-08T13:17:25.761Z,10.37
2019-02-08T13:19:55.846Z,10.83
2019-02-08T13:22:26.074Z,10.70
2019-02-08T13:24:56.270Z,9.90
2019-02-08T13:27:26.460Z,10.93
2019-02-08T13:29:56.552Z,12.47
2019-02-08T13:32:26.718Z,7.43
2019-02-08T13:34:58.351Z,6.47
2019-02-08T13:37:28.518Z,9.63
2019-02-08T13:39:58.796Z,10.37
2019-02-08T13:42:29.176Z,9.47
2019-02-08T13:44:59.329Z,9.83
2019-02-08T13:47:29.448Z,7.80
2019-02-08T13:49:59.529Z,8.07
2019-02-08T13:52:29.633Z,11.40
2019-02-08T13:54:59.694Z,9.77
2019-02-08T13:57:29.840Z,7.73
2019-02-08T13:59:59.982Z,8.00
2019-02-08T14:02:30.122Z,11.63
2019-02-08T14:05:00.303Z,11.30
2019-02-08T14:07:30.539Z,12.17
2019-02-08T14:10:00.880Z,7.97
2019-02-08T14:12:31.026Z,8.30
2019-02-08T14:15:01.174Z,10.80
2019-02-08T14:17:31.346Z,7.23
2019-02-08T14:20:01.437Z,10.43
2019-02-08T14:22:31.608Z,8.20
2019-02-08T14:25:01.697Z,10.50
2019-02-08T14:27:31.862Z,7.50
2019-02-08T14:30:01.953Z,7.40
2019-02-08T14:32:32.079Z,9.60
2019-02-08T14:35:02.211Z,12.10
2019-02-08T14:37:32.294Z,7.87
2019-02-08T14:40:02.593Z,11.53
2019-02-08T14:42:33.819Z,10.83
2019-02-08T14:45:06.217Z,13.13
2019-02-08T14:47:37.346Z,15.10
2019-02-08T14:50:08.756Z,10.33
2019-02-08T14:52:39.193Z,8.30
2019-02-08T14:55:09.548Z,10.03
2019-02-08T14:57:39.736Z,10.07
2019-02-08T15:00:13.352Z,9.10
2019-02-08T15:02:44.571Z,6.83
2019-02-08T15:05:15.755Z,6.60
2019-02-08T15:07:45.900Z,6.17
2019-02-08T15:10:22.802Z,8.80
2019-02-08T15:12:53.031Z,7.40
2019-02-08T15:15:23.147Z,9.60
2019-02-08T15:17:53.393Z,6.13
2019-02-08T15:20:25.785Z,5.13
2019-02-08T15:22:56.005Z,8.17
2019-02-08T15:25:26.607Z,8.70
2019-02-08T15:27:56.720Z,7.53
2019-02-08T15:30:29.467Z,10.37
2019-02-08T15:32:59.673Z,8.17
2019-02-08T15:35:30.523Z,8.60
2019-02-08T15:38:00.873Z,8.03
2019-02-08T15:40:38.669Z,6.97
2019-02-08T15:43:09.395Z,10.20
2019-02-08T15:45:40.357Z,5.80
2019-02-08T15:48:10.594Z,9.37
2019-02-08T15:50:40.882Z,9.10
2019-02-08T15:53:11.035Z,14.50
2019-02-08T15:55:42.577Z,7.90
2019-02-08T15:58:12.807Z,9.83
2019-02-08T16:00:43.081Z,7.07
2019-02-08T16:03:14.816Z,5.23
2019-02-08T16:05:45.005Z,7.53
2019-02-08T16:08:15.187Z,8.80
2019-02-08T16:10:45.452Z,5.87
2019-02-08T16:13:15.733Z,9.00
2019-02-08T16:15:46.109Z,6.83
2019-02-08T16:18:16.305Z,9.53
2019-02-08T16:20:46.441Z,9.07
2019-02-08T16:23:28.833Z,11.90
2019-02-08T16:25:59.033Z,7.13
2019-02-08T16:28:29.188Z,6.00
2019-02-08T16:30:59.572Z,17.83
2019-02-08T16:33:29.743Z,7.90
2019-02-08T16:35:59.908Z,6.57
2019-02-08T16:38:30.105Z,6.33
2019-02-08T16:41:00.244Z,6.93
2019-02-08T16:43:30.512Z,9.90
2019-02-08T16:46:01.701Z,7.33
2019-02-08T16:48:32.021Z,7.17
2019-02-08T16:51:21.351Z,6.73
2019-02-08T16:53:53.556Z,6.63
2019-02-08T16:56:23.369Z,6.10
2019-02-08T16:58:53.688Z,9.73
2019-02-08T17:01:23.919Z,6.30
2019-02-08T17:03:54.008Z,8.77
2019-02-08T17:06:24.179Z,6.53
2019-02-08T17:08:54.355Z,8.33
2019-02-08T17:11:24.676Z,6.67
2019-02-08T17:13:54.767Z,4.67
2019-02-08T17:16:25.025Z,5.70
2019-02-08T17:18:55.142Z,7.10
2019-02-08T17:21:25.250Z,7.70
2019-02-08T17:23:55.426Z,6.97
2019-02-08T17:26:25.551Z,8.30
2019-02-08T17:28:55.632Z,7.13
2019-02-08T17:31:25.732Z,7.43
2019-02-08T17:33:55.899Z,6.97
2019-02-08T17:36:26.214Z,3.70
2019-02-08T17:38:57.454Z,6.37
2019-02-08T17:41:27.650Z,7.23
2019-02-08T17:43:57.870Z,5.97
2019-02-08T17:52:03.241Z,7.60
2019-02-08T17:54:34.131Z,6.20
2019-02-08T17:57:06.052Z,5.20
2019-02-08T17:59:36.460Z,4.50
2019-02-08T18:02:06.758Z,7.73
2019-02-08T18:04:36.864Z,6.20
2019-02-08T18:07:06.991Z,6.83
2019-02-08T18:09:37.186Z,10.80
2019-02-08T18:12:07.397Z,8.30
2019-02-08T18:14:37.585Z,6.87
2019-02-08T18:17:07.673Z,9.17
2019-02-08T18:19:37.924Z,5.80
2019-02-08T18:22:07.998Z,6.57
2019-02-08T18:24:38.220Z,9.50
2019-02-08T18:27:08.374Z,7.43
2019-02-08T18:29:38.444Z,7.30
2019-02-08T18:32:08.547Z,7.73
2019-02-08T18:34:38.755Z,10.17
2019-02-08T18:37:08.980Z,6.07
2019-02-08T18:39:39.154Z,4.27
2019-02-08T18:42:09.407Z,4.77
2019-02-08T18:44:39.524Z,10.30
2019-02-08T18:47:09.623Z,7.23
2019-02-08T18:49:39.711Z,6.13
2019-02-08T18:52:09.883Z,5.03
2019-02-08T18:54:40.068Z,4.33
2019-02-08T18:57:11.328Z,6.17
2019-02-08T18:59:41.475Z,5.40
2019-02-08T19:02:11.651Z,7.83
2019-02-08T19:04:41.765Z,6.67
2019-02-08T19:07:11.961Z,9.00
2019-02-08T19:09:43.321Z,7.43
2019-02-08T19:12:13.490Z,5.90
2019-02-08T19:14:43.758Z,11.00
2019-02-08T19:17:13.942Z,9.80
2019-02-08T19:19:44.177Z,5.67
2019-02-08T19:22:14.354Z,6.27
2019-02-08T19:24:44.523Z,7.20
2019-02-08T19:27:14.748Z,4.70
2019-02-08T19:29:46.004Z,4.87
2019-02-08T19:32:16.245Z,8.53
2019-02-08T19:34:46.372Z,5.07
2019-02-08T19:37:16.541Z,6.90
2019-02-08T19:39:46.733Z,7.33
2019-02-08T19:42:16.953Z,10.80
2019-02-08T19:44:47.194Z,6.90
2019-02-08T19:47:17.455Z,6.53
2019-02-08T19:49:47.544Z,5.60
2019-02-08T19:52:17.830Z,7.00
2019-02-08T19:54:47.978Z,4.43
2019-02-08T19:57:18.220Z,5.07
2019-02-08T19:59:48.412Z,6.17
2019-02-08T20:02:18.585Z,5.03
2019-02-08T20:04:48.858Z,6.83
2019-02-08T20:07:20.133Z,6.33
2019-02-08T20:09:50.298Z,7.30
2019-02-08T20:12:20.392Z,5.57
2019-02-08T20:14:50.467Z,8.17
2019-02-08T20:17:20.700Z,6.80
2019-02-08T20:19:50.944Z,8.27
2019-02-08T20:22:21.153Z,11.20
2019-02-08T20:24:51.429Z,10.23
2019-02-08T20:27:21.589Z,7.17
2019-02-08T20:29:51.896Z,4.80
2019-02-08T20:32:21.987Z,5.23
2019-02-08T20:34:52.131Z,5.67
2019-02-08T20:37:22.371Z,7.07
2019-02-08T20:39:53.717Z,6.87
2019-02-08T20:42:24.088Z,7.37
2019-02-08T20:44:54.186Z,7.07
2019-02-08T20:47:24.279Z,6.10
2019-02-08T20:49:54.489Z,6.37
2019-02-08T20:52:24.578Z,4.67
2019-02-08T20:54:54.679Z,7.63
2019-02-08T20:57:24.798Z,6.00
2019-02-08T20:59:54.896Z,5.40
2019-02-08T21:02:25.195Z,6.73
2019-02-08T21:04:55.328Z,7.17
2019-02-08T21:07:25.482Z,5.60
2019-02-08T21:09:55.947Z,5.20
2019-02-08T21:12:26.135Z,11.77
2019-02-08T21:14:56.242Z,7.37
2019-02-08T21:17:26.515Z,5.87
2019-02-08T21:19:56.718Z,6.17
2019-02-08T21:22:27.975Z,6.40
2019-02-08T21:24:58.055Z,9.43
2019-02-08T21:27:28.227Z,4.10
2019-02-08T21:29:58.368Z,6.17
2019-02-08T21:32:28.453Z,6.00
2019-02-08T21:34:58.685Z,9.10
2019-02-08T21:37:28.915Z,6.23
2019-02-08T21:39:59.197Z,5.60
2019-02-08T21:42:29.471Z,7.90
2019-02-08T21:44:59.763Z,6.50
2019-02-08T21:47:29.935Z,7.37
2019-02-08T21:50:00.261Z,6.70
2019-02-08T21:52:30.489Z,4.87
2019-02-08T21:55:00.676Z,7.47
2019-02-08T21:57:30.991Z,6.83
2019-02-08T22:00:01.156Z,6.27
2019-02-08T22:02:32.688Z,5.57
2019-02-08T22:05:02.888Z,5.83
2019-02-08T22:07:33.210Z,6.57
2019-02-08T22:10:03.473Z,4.30
2019-02-08T22:12:33.774Z,7.43
2019-02-08T22:15:05.089Z,5.57
2019-02-08T22:17:35.174Z,3.47
2019-02-08T22:20:07.895Z,6.77
2019-02-08T22:22:39.829Z,6.03
2019-02-08T22:25:11.527Z,5.43
2019-02-08T22:27:41.593Z,4.20
2019-02-08T22:30:17.800Z,5.93
2019-02-08T22:32:48.457Z,6.37
2019-02-08T22:35:19.167Z,8.67
2019-02-08T22:37:49.432Z,5.50
2019-02-08T22:40:20.489Z,3.37
2019-02-08T22:42:51.165Z,7.17
2019-02-08T22:45:29.678Z,5.00
2019-02-08T22:47:59.898Z,3.90
2019-02-08T22:50:31.011Z,5.37
2019-02-08T22:53:01.123Z,5.93
2019-02-08T22:55:32.016Z,9.20
2019-02-08T22:58:02.289Z,9.17
2019-02-08T23:01:21.410Z,7.37
2019-02-08T23:03:52.029Z,4.03
2019-02-08T23:06:22.257Z,3.10
2019-02-08T23:08:52.730Z,5.83
2019-02-08T23:11:23.501Z,5.20
2019-02-08T23:13:53.572Z,5.17
2019-02-08T23:16:23.751Z,5.33
2019-02-08T23:18:53.827Z,4.40
2019-02-08T23:21:24.110Z,6.70
2019-02-08T23:23:54.175Z,5.97
2019-02-08T23:26:24.365Z,8.80
2019-02-08T23:28:54.409Z,7.03
2019-02-08T23:31:24.643Z,7.67
2019-02-08T23:33:54.734Z,7.23
2019-02-08T23:36:24.793Z,3.47
2019-02-08T23:38:54.970Z,8.30
2019-02-08T23:41:25.057Z,3.73
2019-02-08T23:43:55.132Z,4.60
2019-02-08T23:46:25.269Z,5.63
2019-02-08T23:48:55.522Z,3.63
2019-02-08T23:51:25.658Z,4.87
2019-02-08T23:53:55.834Z,6.13
2019-02-08T23:56:25.982Z,7.17
2019-02-08T23:58:56.107Z,5.93
